sensor_id;sensor_type;location;lat;lon;timestamp;pressure;altitude;pressure_sealevel;temperature;humidity
26489;BME280;14169;43.684;10.484;2023-04-27T00:00:09;101517.13;;;13.00;100.00
26489;BME280;14169;43.684;10.484;2023-04-27T00:02:36;101515.50;;;12.96;100.00
26489;BME280;14169;43.684;10.484;2023-04-27T00:05:03;101508.69;;;12.90;100.00
26489;BME280;14169;43.684;10.484;2023-04-27T00:07:29;101509.78;;;12.83;100.00
26489;BME280;14169;43.684;10.484;2023-04-27T00:09:55;101510.50;;;12.88;100.00
26489;BME280;14169;43.684;10.484;2023-04-27T00:12:20;101507.63;;;12.97;100.00
26489;BME280;14169;43.684;10.484;2023-04-27T00:14:46;101508.28;;;13.04;100.00
26489;BME280;14169;43.684;10.484;2023-04-27T00:17:11;101500.41;;;13.05;100.00
26489;BME280;14169;43.684;10.484;2023-04-27T00:19:37;101506.56;;;13.03;100.00
26489;BME280;14169;43.684;10.484;2023-04-27T00:22:03;101510.13;;;13.00;100.00
26489;BME280;14169;43.684;10.484;2023-04-27T00:24:29;101513.75;;;12.96;100.00
26489;BME280;14169;43.684;10.484;2023-04-27T00:26:54;101511.28;;;12.90;100.00
26489;BME280;14169;43.684;10.484;2023-04-27T00:29:20;101507.22;;;12.80;100.00
26489;BME280;14169;43.684;10.484;2023-04-27T00:31:46;101503.94;;;12.74;100.00
26489;BME280;14169;43.684;10.484;2023-04-27T00:34:11;101514.53;;;12.69;100.00
26489;BME280;14169;43.684;10.484;2023-04-27T00:36:37;101510.31;;;12.65;100.00
26489;BME280;14169;43.684;10.484;2023-04-27T00:39:02;101509.66;;;12.57;100.00
26489;BME280;14169;43.684;10.484;2023-04-27T00:41:28;101515.88;;;12.51;100.00
26489;BME280;14169;43.684;10.484;2023-04-27T00:43:53;101515.88;;;12.51;100.00
26489;BME280;14169;43.684;10.484;2023-04-27T00:46:19;101508.03;;;12.51;100.00
26489;BME280;14169;43.684;10.484;2023-04-27T00:48:45;101504.59;;;12.49;100.00
26489;BME280;14169;43.684;10.484;2023-04-27T00:51:11;101508.22;;;12.45;100.00
26489;BME280;14169;43.684;10.484;2023-04-27T00:53:36;101508.19;;;12.47;100.00
26489;BME280;14169;43.684;10.484;2023-04-27T00:56:03;101499.38;;;12.51;100.00
26489;BME280;14169;43.684;10.484;2023-04-27T00:58:29;101498.38;;;12.55;100.00
26489;BME280;14169;43.684;10.484;2023-04-27T01:00:54;101502.69;;;12.56;100.00
26489;BME280;14169;43.684;10.484;2023-04-27T01:03:21;101506.94;;;12.60;100.00
26489;BME280;14169;43.684;10.484;2023-04-27T01:05:46;101512.16;;;12.60;100.00
26489;BME280;14169;43.684;10.484;2023-04-27T01:08:12;101509.78;;;12.52;100.00
26489;BME280;14169;43.684;10.484;2023-04-27T01:10:37;101508.97;;;12.50;100.00
26489;BME280;14169;43.684;10.484;2023-04-27T01:13:03;101510.88;;;12.44;100.00
26489;BME280;14169;43.684;10.484;2023-04-27T01:15:28;101505.75;;;12.41;100.00
26489;BME280;14169;43.684;10.484;2023-04-27T01:18:00;101510.25;;;12.34;100.00
26489;BME280;14169;43.684;10.484;2023-04-27T01:20:27;101500.59;;;12.38;100.00
26489;BME280;14169;43.684;10.484;2023-04-27T01:22:57;101501.41;;;12.40;100.00
26489;BME280;14169;43.684;10.484;2023-04-27T01:25:23;101498.78;;;12.40;100.00
26489;BME280;14169;43.684;10.484;2023-04-27T01:27:49;101499.78;;;12.36;100.00
26489;BME280;14169;43.684;10.484;2023-04-27T01:30:15;101506.03;;;12.30;100.00
26489;BME280;14169;43.684;10.484;2023-04-27T01:32:40;101495.78;;;12.23;100.00
26489;BME280;14169;43.684;10.484;2023-04-27T01:35:06;101491.69;;;12.13;100.00
26489;BME280;14169;43.684;10.484;2023-04-27T01:37:32;101502.38;;;12.04;100.00
26489;BME280;14169;43.684;10.484;2023-04-27T01:39:57;101502.56;;;11.96;100.00
26489;BME280;14169;43.684;10.484;2023-04-27T01:42:23;101499.38;;;11.83;100.00
26489;BME280;14169;43.684;10.484;2023-04-27T01:44:48;101499.75;;;11.68;100.00
26489;BME280;14169;43.684;10.484;2023-04-27T01:47:15;101503.56;;;11.55;100.00
26489;BME280;14169;43.684;10.484;2023-04-27T01:49:41;101507.34;;;11.42;100.00
26489;BME280;14169;43.684;10.484;2023-04-27T01:52:06;101513.66;;;11.32;100.00
26489;BME280;14169;43.684;10.484;2023-04-27T01:54:32;101521.56;;;11.29;100.00
26489;BME280;14169;43.684;10.484;2023-04-27T01:56:57;101519.88;;;11.27;100.00
26489;BME280;14169;43.684;10.484;2023-04-27T01:59:23;101514.72;;;11.24;100.00
26489;BME280;14169;43.684;10.484;2023-04-27T02:01:48;101516.47;;;11.23;100.00
26489;BME280;14169;43.684;10.484;2023-04-27T02:04:13;101517.34;;;11.22;100.00
26489;BME280;14169;43.684;10.484;2023-04-27T02:06:39;101519.09;;;11.23;100.00
26489;BME280;14169;43.684;10.484;2023-04-27T02:09:05;101519.91;;;11.24;100.00
26489;BME280;14169;43.684;10.484;2023-04-27T02:11:31;101520.00;;;11.21;100.00
26489;BME280;14169;43.684;10.484;2023-04-27T02:13:56;101526.13;;;11.18;100.00
26489;BME280;14169;43.684;10.484;2023-04-27T02:16:22;101521.00;;;11.15;100.00
26489;BME280;14169;43.684;10.484;2023-04-27T02:18:47;101523.63;;;11.14;100.00
26489;BME280;14169;43.684;10.484;2023-04-27T02:21:13;101520.97;;;11.17;100.00
26489;BME280;14169;43.684;10.484;2023-04-27T02:23:38;101530.63;;;11.13;100.00
26489;BME280;14169;43.684;10.484;2023-04-27T02:26:04;101529.00;;;11.08;100.00
26489;BME280;14169;43.684;10.484;2023-04-27T02:28:30;101527.31;;;11.05;100.00
26489;BME280;14169;43.684;10.484;2023-04-27T02:30:56;101530.91;;;11.00;100.00
26489;BME280;14169;43.684;10.484;2023-04-27T02:33:22;101521.31;;;11.00;100.00
26489;BME280;14169;43.684;10.484;2023-04-27T02:35:47;101529.25;;;10.96;100.00
26489;BME280;14169;43.684;10.484;2023-04-27T02:38:13;101528.50;;;10.89;100.00
26489;BME280;14169;43.684;10.484;2023-04-27T02:40:38;101532.03;;;10.86;100.00
26489;BME280;14169;43.684;10.484;2023-04-27T02:43:03;101533.91;;;10.80;100.00
26489;BME280;14169;43.684;10.484;2023-04-27T02:45:29;101546.19;;;10.75;100.00
26489;BME280;14169;43.684;10.484;2023-04-27T02:47:55;101534.09;;;10.71;100.00
26489;BME280;14169;43.684;10.484;2023-04-27T02:50:20;101537.56;;;10.71;100.00
26489;BME280;14169;43.684;10.484;2023-04-27T02:52:45;101538.41;;;10.72;100.00
26489;BME280;14169;43.684;10.484;2023-04-27T02:55:11;101541.00;;;10.72;100.00
26489;BME280;14169;43.684;10.484;2023-04-27T02:57:37;101542.78;;;10.70;100.00
26489;BME280;14169;43.684;10.484;2023-04-27T03:00:03;101546.34;;;10.67;100.00
26489;BME280;14169;43.684;10.484;2023-04-27T03:02:31;101535.91;;;10.66;100.00
26489;BME280;14169;43.684;10.484;2023-04-27T03:04:56;101542.94;;;10.62;100.00
26489;BME280;14169;43.684;10.484;2023-04-27T03:07:23;101530.91;;;10.57;100.00
26489;BME280;14169;43.684;10.484;2023-04-27T03:09:48;101536.13;;;10.54;100.00
26489;BME280;14169;43.684;10.484;2023-04-27T03:12:14;101543.19;;;10.49;100.00
26489;BME280;14169;43.684;10.484;2023-04-27T03:14:39;101550.19;;;10.45;100.00
26489;BME280;14169;43.684;10.484;2023-04-27T03:17:05;101548.47;;;10.46;100.00
26489;BME280;14169;43.684;10.484;2023-04-27T03:19:30;101550.22;;;10.42;100.00
26489;BME280;14169;43.684;10.484;2023-04-27T03:21:56;101547.63;;;10.42;100.00
26489;BME280;14169;43.684;10.484;2023-04-27T03:24:21;101549.44;;;10.39;100.00
26489;BME280;14169;43.684;10.484;2023-04-27T03:26:49;101545.97;;;10.38;100.00
26489;BME280;14169;43.684;10.484;2023-04-27T03:29:15;101554.72;;;10.36;100.00
26489;BME280;14169;43.684;10.484;2023-04-27T03:31:40;101554.78;;;10.31;100.00
26489;BME280;14169;43.684;10.484;2023-04-27T03:34:06;101551.34;;;10.29;100.00
26489;BME280;14169;43.684;10.484;2023-04-27T03:36:31;101562.69;;;10.27;100.00
26489;BME280;14169;43.684;10.484;2023-04-27T03:38:56;101568.00;;;10.21;100.00
26489;BME280;14169;43.684;10.484;2023-04-27T03:41:22;101564.63;;;10.14;100.00
26489;BME280;14169;43.684;10.484;2023-04-27T03:43:47;101564.72;;;10.08;100.00
26489;BME280;14169;43.684;10.484;2023-04-27T03:46:13;101565.66;;;10.04;100.00
26489;BME280;14169;43.684;10.484;2023-04-27T03:48:38;101570.97;;;9.99;100.00
26489;BME280;14169;43.684;10.484;2023-04-27T03:51:04;101571.94;;;9.92;100.00
26489;BME280;14169;43.684;10.484;2023-04-27T03:53:29;101569.34;;;9.91;100.00
26489;BME280;14169;43.684;10.484;2023-04-27T03:55:55;101565.94;;;9.86;100.00
26489;BME280;14169;43.684;10.484;2023-04-27T03:58:20;101566.88;;;9.83;100.00
26489;BME280;14169;43.684;10.484;2023-04-27T04:00:45;101562.53;;;9.84;100.00
26489;BME280;14169;43.684;10.484;2023-04-27T04:03:11;101565.09;;;9.87;100.00
26489;BME280;14169;43.684;10.484;2023-04-27T04:05:36;101563.38;;;9.84;100.00
26489;BME280;14169;43.684;10.484;2023-04-27T04:08:01;101571.25;;;9.81;100.00
26489;BME280;14169;43.684;10.484;2023-04-27T04:10:27;101573.88;;;9.80;100.00
26489;BME280;14169;43.684;10.484;2023-04-27T04:12:53;101579.91;;;9.80;100.00
26489;BME280;14169;43.684;10.484;2023-04-27T04:15:18;101576.38;;;9.84;100.00
26489;BME280;14169;43.684;10.484;2023-04-27T04:17:44;101585.03;;;9.86;100.00
26489;BME280;14169;43.684;10.484;2023-04-27T04:20:11;101584.19;;;9.84;100.00
26489;BME280;14169;43.684;10.484;2023-04-27T04:22:37;101599.00;;;9.81;100.00
26489;BME280;14169;43.684;10.484;2023-04-27T04:25:03;101599.13;;;9.73;100.00
26489;BME280;14169;43.684;10.484;2023-04-27T04:27:29;101600.91;;;9.70;100.00
26489;BME280;14169;43.684;10.484;2023-04-27T04:29:55;101601.84;;;9.64;100.00
26489;BME280;14169;43.684;10.484;2023-04-27T04:32:21;101606.22;;;9.64;100.00
26489;BME280;14169;43.684;10.484;2023-04-27T04:34:50;101602.72;;;9.65;100.00
26489;BME280;14169;43.684;10.484;2023-04-27T04:37:15;101603.59;;;9.64;100.00
26489;BME280;14169;43.684;10.484;2023-04-27T04:39:45;101598.41;;;9.62;100.00
26489;BME280;14169;43.684;10.484;2023-04-27T04:42:10;101603.66;;;9.59;100.00
26489;BME280;14169;43.684;10.484;2023-04-27T04:44:36;101604.53;;;9.60;100.00
26489;BME280;14169;43.684;10.484;2023-04-27T04:47:03;101598.44;;;9.61;100.00
26489;BME280;14169;43.684;10.484;2023-04-27T04:49:29;101595.81;;;9.64;100.00
26489;BME280;14169;43.684;10.484;2023-04-27T04:51:54;101612.34;;;9.60;100.00
26489;BME280;14169;43.684;10.484;2023-04-27T04:54:19;101614.00;;;9.64;100.00
26489;BME280;14169;43.684;10.484;2023-04-27T04:56:45;101613.97;;;9.67;100.00
26489;BME280;14169;43.684;10.484;2023-04-27T04:59:10;101617.38;;;9.70;100.00
26489;BME280;14169;43.684;10.484;2023-04-27T05:01:36;101617.22;;;9.81;100.00
26489;BME280;14169;43.684;10.484;2023-04-27T05:04:01;101624.88;;;9.90;100.00
26489;BME280;14169;43.684;10.484;2023-04-27T05:06:27;101633.47;;;9.96;100.00
26489;BME280;14169;43.684;10.484;2023-04-27T05:08:52;101631.63;;;10.03;100.00
26489;BME280;14169;43.684;10.484;2023-04-27T05:11:17;101628.00;;;10.13;100.00
26489;BME280;14169;43.684;10.484;2023-04-27T05:13:43;101631.38;;;10.20;100.00
26489;BME280;14169;43.684;10.484;2023-04-27T05:16:08;101645.94;;;10.31;100.00
26489;BME280;14169;43.684;10.484;2023-04-27T05:18:34;101642.34;;;10.38;100.00
26489;BME280;14169;43.684;10.484;2023-04-27T05:21:00;101652.66;;;10.44;100.00
26489;BME280;14169;43.684;10.484;2023-04-27T05:23:25;101654.19;;;10.59;100.00
26489;BME280;14169;43.684;10.484;2023-04-27T05:25:50;101658.28;;;10.73;100.00
26489;BME280;14169;43.684;10.484;2023-04-27T05:28:16;101652.00;;;10.82;100.00
26489;BME280;14169;43.684;10.484;2023-04-27T05:30:41;101663.16;;;10.90;100.00
26489;BME280;14169;43.684;10.484;2023-04-27T05:33:07;101657.72;;;11.02;100.00
26489;BME280;14169;43.684;10.484;2023-04-27T05:35:32;101661.84;;;11.15;100.00
26489;BME280;14169;43.684;10.484;2023-04-27T05:37:58;101665.16;;;11.22;100.00
26489;BME280;14169;43.684;10.484;2023-04-27T05:40:24;101677.19;;;11.29;100.00
26489;BME280;14169;43.684;10.484;2023-04-27T05:42:49;101668.31;;;11.39;100.00
26489;BME280;14169;43.684;10.484;2023-04-27T05:45:15;101662.78;;;11.52;100.00
26489;BME280;14169;43.684;10.484;2023-04-27T05:47:40;101672.09;;;11.64;100.00
26489;BME280;14169;43.684;10.484;2023-04-27T05:50:06;101666.78;;;11.68;100.00
26489;BME280;14169;43.684;10.484;2023-04-27T05:52:32;101670.94;;;11.78;100.00
26489;BME280;14169;43.684;10.484;2023-04-27T05:54:58;101675.06;;;11.89;100.00
26489;BME280;14169;43.684;10.484;2023-04-27T05:57:24;101676.66;;;11.97;100.00
26489;BME280;14169;43.684;10.484;2023-04-27T05:59:50;101675.63;;;12.03;100.00
26489;BME280;14169;43.684;10.484;2023-04-27T06:02:16;101684.97;;;12.13;100.00
26489;BME280;14169;43.684;10.484;2023-04-27T06:04:42;101684.66;;;12.26;100.00
26489;BME280;14169;43.684;10.484;2023-04-27T06:07:11;101682.72;;;12.34;100.00
26489;BME280;14169;43.684;10.484;2023-04-27T06:09:36;101686.72;;;12.49;100.00
26489;BME280;14169;43.684;10.484;2023-04-27T06:12:03;101677.75;;;12.59;100.00
26489;BME280;14169;43.684;10.484;2023-04-27T06:14:29;101678.47;;;12.64;100.00
26489;BME280;14169;43.684;10.484;2023-04-27T06:16:55;101685.16;;;12.76;100.00
26489;BME280;14169;43.684;10.484;2023-04-27T06:19:20;101686.63;;;12.86;100.00
26489;BME280;14169;43.684;10.484;2023-04-27T06:21:45;101689.91;;;12.94;100.00
26489;BME280;14169;43.684;10.484;2023-04-27T06:24:11;101691.31;;;13.07;100.00
26489;BME280;14169;43.684;10.484;2023-04-27T06:26:36;101700.63;;;13.18;100.00
26489;BME280;14169;43.684;10.484;2023-04-27T06:29:02;101694.19;;;13.30;100.00
26489;BME280;14169;43.684;10.484;2023-04-27T06:31:28;101692.13;;;13.41;100.00
26489;BME280;14169;43.684;10.484;2023-04-27T06:33:53;101695.25;;;13.54;100.00
26489;BME280;14169;43.684;10.484;2023-04-27T06:36:19;101701.97;;;13.62;100.00
26489;BME280;14169;43.684;10.484;2023-04-27T06:38:45;101702.56;;;13.72;100.00
26489;BME280;14169;43.684;10.484;2023-04-27T06:41:10;101701.25;;;13.86;100.00
26489;BME280;14169;43.684;10.484;2023-04-27T06:43:36;101704.38;;;13.99;100.00
26489;BME280;14169;43.684;10.484;2023-04-27T06:46:02;101706.44;;;14.17;100.00
26489;BME280;14169;43.684;10.484;2023-04-27T06:48:27;101701.94;;;14.20;100.00
26489;BME280;14169;43.684;10.484;2023-04-27T06:50:53;101713.00;;;14.30;100.00
26489;BME280;14169;43.684;10.484;2023-04-27T06:53:18;101714.69;;;14.32;100.00
26489;BME280;14169;43.684;10.484;2023-04-27T06:55:44;101713.53;;;14.41;100.00
26489;BME280;14169;43.684;10.484;2023-04-27T06:58:09;101713.31;;;14.49;100.00
26489;BME280;14169;43.684;10.484;2023-04-27T07:00:35;101715.34;;;14.67;100.00
26489;BME280;14169;43.684;10.484;2023-04-27T07:03:01;101717.56;;;14.77;100.00
26489;BME280;14169;43.684;10.484;2023-04-27T07:05:26;101721.88;;;14.80;100.00
26489;BME280;14169;43.684;10.484;2023-04-27T07:07:52;101719.91;;;14.86;100.00
26489;BME280;14169;43.684;10.484;2023-04-27T07:10:17;101725.03;;;14.89;100.00
26489;BME280;14169;43.684;10.484;2023-04-27T07:12:43;101729.88;;;15.01;100.00
26489;BME280;14169;43.684;10.484;2023-04-27T07:15:09;101721.72;;;15.09;100.00
26489;BME280;14169;43.684;10.484;2023-04-27T07:17:34;101725.81;;;15.17;100.00
26489;BME280;14169;43.684;10.484;2023-04-27T07:20:00;101726.16;;;15.32;100.00
26489;BME280;14169;43.684;10.484;2023-04-27T07:22:27;101728.53;;;15.41;100.00
26489;BME280;14169;43.684;10.484;2023-04-27T07:24:53;101735.53;;;15.40;100.00
26489;BME280;14169;43.684;10.484;2023-04-27T07:27:18;101724.66;;;15.51;100.00
26489;BME280;14169;43.684;10.484;2023-04-27T07:29:44;101732.13;;;15.61;100.00
26489;BME280;14169;43.684;10.484;2023-04-27T07:32:10;101722.25;;;15.68;100.00
26489;BME280;14169;43.684;10.484;2023-04-27T07:34:35;101715.97;;;15.72;100.00
26489;BME280;14169;43.684;10.484;2023-04-27T07:37:01;101720.22;;;15.97;100.00
26489;BME280;14169;43.684;10.484;2023-04-27T07:39:27;101717.06;;;16.11;100.00
26489;BME280;14169;43.684;10.484;2023-04-27T07:41:52;101716.81;;;16.17;100.00
26489;BME280;14169;43.684;10.484;2023-04-27T07:44:18;101725.03;;;16.31;100.00
26489;BME280;14169;43.684;10.484;2023-04-27T07:46:44;101713.13;;;16.44;100.00
26489;BME280;14169;43.684;10.484;2023-04-27T07:49:12;101717.91;;;16.56;100.00
26489;BME280;14169;43.684;10.484;2023-04-27T07:51:38;101725.78;;;16.56;100.00
26489;BME280;14169;43.684;10.484;2023-04-27T07:54:04;101728.28;;;16.59;100.00
26489;BME280;14169;43.684;10.484;2023-04-27T07:56:29;101727.38;;;16.60;100.00
26489;BME280;14169;43.684;10.484;2023-04-27T07:58:55;101724.25;;;16.72;100.00
26489;BME280;14169;43.684;10.484;2023-04-27T08:01:20;101725.84;;;16.76;100.00
26489;BME280;14169;43.684;10.484;2023-04-27T08:03:46;101727.34;;;16.82;100.00
26489;BME280;14169;43.684;10.484;2023-04-27T08:06:11;101725.44;;;16.85;100.00
26489;BME280;14169;43.684;10.484;2023-04-27T08:08:37;101727.63;;;16.96;100.00
26489;BME280;14169;43.684;10.484;2023-04-27T08:11:02;101730.91;;;17.21;100.00
26489;BME280;14169;43.684;10.484;2023-04-27T08:13:28;101733.97;;;17.31;100.00
26489;BME280;14169;43.684;10.484;2023-04-27T08:15:53;101734.75;;;17.34;100.00
26489;BME280;14169;43.684;10.484;2023-04-27T08:18:23;101733.34;;;17.46;100.00
26489;BME280;14169;43.684;10.484;2023-04-27T08:20:48;101730.53;;;17.69;100.00
26489;BME280;14169;43.684;10.484;2023-04-27T08:23:14;101735.13;;;17.84;100.00
26489;BME280;14169;43.684;10.484;2023-04-27T08:25:39;101730.91;;;17.99;100.00
26489;BME280;14169;43.684;10.484;2023-04-27T08:28:05;101733.69;;;17.96;100.00
26489;BME280;14169;43.684;10.484;2023-04-27T08:30:30;101725.63;;;17.99;100.00
26489;BME280;14169;43.684;10.484;2023-04-27T08:32:56;101740.47;;;18.20;100.00
26489;BME280;14169;43.684;10.484;2023-04-27T08:35:21;101741.31;;;18.20;100.00
26489;BME280;14169;43.684;10.484;2023-04-27T08:37:47;101739.38;;;18.42;100.00
26489;BME280;14169;43.684;10.484;2023-04-27T08:40:12;101738.72;;;18.56;100.00
26489;BME280;14169;43.684;10.484;2023-04-27T08:42:51;101734.31;;;18.74;100.00
26489;BME280;14169;43.684;10.484;2023-04-27T08:45:17;101731.84;;;18.88;100.00
26489;BME280;14169;43.684;10.484;2023-04-27T08:47:43;101740.22;;;18.96;100.00
26489;BME280;14169;43.684;10.484;2023-04-27T08:50:09;101747.53;;;19.08;100.00
26489;BME280;14169;43.684;10.484;2023-04-27T08:52:36;101746.22;;;19.16;100.00
26489;BME280;14169;43.684;10.484;2023-04-27T08:55:01;101747.22;;;19.48;100.00
26489;BME280;14169;43.684;10.484;2023-04-27T08:57:27;101739.25;;;19.81;100.00
26489;BME280;14169;43.684;10.484;2023-04-27T08:59:56;101733.84;;;19.99;100.00
26489;BME280;14169;43.684;10.484;2023-04-27T09:02:24;101741.22;;;20.10;100.00
26489;BME280;14169;43.684;10.484;2023-04-27T09:04:51;101742.81;;;20.12;100.00
26489;BME280;14169;43.684;10.484;2023-04-27T09:07:17;101742.03;;;19.95;100.00
26489;BME280;14169;43.684;10.484;2023-04-27T09:09:43;101744.19;;;20.04;100.00
26489;BME280;14169;43.684;10.484;2023-04-27T09:12:16;101737.78;;;20.24;100.00
26489;BME280;14169;43.684;10.484;2023-04-27T09:14:42;101745.69;;;20.55;100.00
26489;BME280;14169;43.684;10.484;2023-04-27T09:17:08;101732.69;;;20.81;100.00
26489;BME280;14169;43.684;10.484;2023-04-27T09:19:33;101740.75;;;20.94;100.00
26489;BME280;14169;43.684;10.484;2023-04-27T09:22:17;101746.13;;;20.92;100.00
26489;BME280;14169;43.684;10.484;2023-04-27T09:24:52;101754.31;;;21.03;99.98
26489;BME280;14169;43.684;10.484;2023-04-27T09:27:21;101750.84;;;21.17;99.55
26489;BME280;14169;43.684;10.484;2023-04-27T09:29:47;101744.84;;;21.43;99.69
26489;BME280;14169;43.684;10.484;2023-04-27T09:32:14;101751.81;;;21.44;98.30
26489;BME280;14169;43.684;10.484;2023-04-27T09:34:40;101747.47;;;21.43;97.76
26489;BME280;14169;43.684;10.484;2023-04-27T09:37:06;101748.72;;;21.38;95.30
26489;BME280;14169;43.684;10.484;2023-04-27T09:39:32;101747.75;;;21.39;95.69
26489;BME280;14169;43.684;10.484;2023-04-27T09:41:58;101752.34;;;21.65;97.12
26489;BME280;14169;43.684;10.484;2023-04-27T09:44:25;101746.84;;;21.82;95.10
26489;BME280;14169;43.684;10.484;2023-04-27T09:46:52;101752.06;;;21.98;92.67
26489;BME280;14169;43.684;10.484;2023-04-27T09:49:20;101745.75;;;22.13;91.46
26489;BME280;14169;43.684;10.484;2023-04-27T09:51:46;101743.66;;;22.18;91.02
26489;BME280;14169;43.684;10.484;2023-04-27T09:54:12;101753.44;;;22.31;90.01
26489;BME280;14169;43.684;10.484;2023-04-27T09:56:55;101748.97;;;22.32;88.43
26489;BME280;14169;43.684;10.484;2023-04-27T10:01:56;101748.91;;;22.46;88.99
26489;BME280;14169;43.684;10.484;2023-04-27T10:07:21;101748.22;;;22.56;83.93
26489;BME280;14169;43.684;10.484;2023-04-27T10:09:48;101746.38;;;22.44;82.30
26489;BME280;14169;43.684;10.484;2023-04-27T10:12:31;101744.63;;;22.57;84.87
26489;BME280;14169;43.684;10.484;2023-04-27T10:14:58;101737.81;;;22.53;83.16
26489;BME280;14169;43.684;10.484;2023-04-27T10:17:28;101736.03;;;22.93;82.77
26489;BME280;14169;43.684;10.484;2023-04-27T10:20:12;101730.38;;;22.98;81.07
26489;BME280;14169;43.684;10.484;2023-04-27T10:22:44;101737.94;;;23.04;80.90
26489;BME280;14169;43.684;10.484;2023-04-27T10:25:25;101733.31;;;23.32;80.09
26489;BME280;14169;43.684;10.484;2023-04-27T10:27:59;101738.84;;;23.54;76.22
26489;BME280;14169;43.684;10.484;2023-04-27T10:30:31;101736.94;;;23.31;73.60
26489;BME280;14169;43.684;10.484;2023-04-27T10:32:59;101735.66;;;23.24;72.83
26489;BME280;14169;43.684;10.484;2023-04-27T10:35:36;101727.25;;;23.30;72.87
26489;BME280;14169;43.684;10.484;2023-04-27T10:38:08;101733.88;;;23.63;72.60
26489;BME280;14169;43.684;10.484;2023-04-27T10:40:36;101723.84;;;23.79;71.03
26489;BME280;14169;43.684;10.484;2023-04-27T10:45:35;101715.41;;;23.85;66.67
26489;BME280;14169;43.684;10.484;2023-04-27T10:48:00;101711.19;;;24.06;67.61
26489;BME280;14169;43.684;10.484;2023-04-27T10:50:26;101720.34;;;24.02;68.72
26489;BME280;14169;43.684;10.484;2023-04-27T10:52:52;101713.00;;;24.05;70.54
26489;BME280;14169;43.684;10.484;2023-04-27T10:55:19;101715.91;;;23.90;69.44
26489;BME280;14169;43.684;10.484;2023-04-27T10:57:49;101711.28;;;23.81;69.04
26489;BME280;14169;43.684;10.484;2023-04-27T11:00:26;101704.19;;;24.05;69.32
26489;BME280;14169;43.684;10.484;2023-04-27T11:02:54;101709.09;;;23.98;67.55
26489;BME280;14169;43.684;10.484;2023-04-27T11:05:26;101714.69;;;23.45;67.16
26489;BME280;14169;43.684;10.484;2023-04-27T11:08:04;101706.38;;;23.49;66.24
26489;BME280;14169;43.684;10.484;2023-04-27T11:10:31;101698.84;;;23.69;65.40
26489;BME280;14169;43.684;10.484;2023-04-27T11:12:56;101690.50;;;24.09;65.57
26489;BME280;14169;43.684;10.484;2023-04-27T11:15:22;101688.13;;;24.30;64.58
26489;BME280;14169;43.684;10.484;2023-04-27T11:17:47;101688.69;;;24.10;60.84
26489;BME280;14169;43.684;10.484;2023-04-27T11:20:13;101694.28;;;23.94;61.15
26489;BME280;14169;43.684;10.484;2023-04-27T11:22:44;101694.84;;;23.87;61.00
26489;BME280;14169;43.684;10.484;2023-04-27T11:25:10;101692.38;;;24.20;61.19
26489;BME280;14169;43.684;10.484;2023-04-27T11:27:37;101689.22;;;24.62;61.72
26489;BME280;14169;43.684;10.484;2023-04-27T11:30:03;101691.06;;;25.07;60.27
26489;BME280;14169;43.684;10.484;2023-04-27T11:32:29;101693.78;;;25.52;57.49
26489;BME280;14169;43.684;10.484;2023-04-27T11:34:56;101691.50;;;25.69;53.77
26489;BME280;14169;43.684;10.484;2023-04-27T11:37:22;101690.91;;;25.66;52.55
26489;BME280;14169;43.684;10.484;2023-04-27T11:39:49;101689.31;;;25.52;53.38
26489;BME280;14169;43.684;10.484;2023-04-27T11:42:19;101690.19;;;25.75;55.55
26489;BME280;14169;43.684;10.484;2023-04-27T11:44:53;101681.59;;;26.03;55.14
26489;BME280;14169;43.684;10.484;2023-04-27T11:47:19;101687.28;;;26.21;54.16
26489;BME280;14169;43.684;10.484;2023-04-27T11:49:55;101677.34;;;26.54;54.46
26489;BME280;14169;43.684;10.484;2023-04-27T11:52:26;101680.50;;;26.80;52.19
26489;BME280;14169;43.684;10.484;2023-04-27T11:54:52;101679.00;;;27.08;52.04
26489;BME280;14169;43.684;10.484;2023-04-27T11:57:24;101680.44;;;27.32;50.34
26489;BME280;14169;43.684;10.484;2023-04-27T11:59:51;101675.44;;;26.98;51.38
26489;BME280;14169;43.684;10.484;2023-04-27T12:02:19;101687.06;;;26.13;53.86
26489;BME280;14169;43.684;10.484;2023-04-27T12:04:47;101688.44;;;25.96;57.06
26489;BME280;14169;43.684;10.484;2023-04-27T12:07:12;101682.53;;;26.35;56.66
26489;BME280;14169;43.684;10.484;2023-04-27T12:09:38;101683.25;;;26.37;55.82
26489;BME280;14169;43.684;10.484;2023-04-27T12:12:04;101676.25;;;26.25;57.30
26489;BME280;14169;43.684;10.484;2023-04-27T12:14:30;101687.38;;;25.76;56.48
26489;BME280;14169;43.684;10.484;2023-04-27T12:16:56;101684.22;;;25.60;57.66
26489;BME280;14169;43.684;10.484;2023-04-27T12:19:21;101680.09;;;25.67;57.54
26489;BME280;14169;43.684;10.484;2023-04-27T12:21:49;101689.06;;;25.88;56.95
26489;BME280;14169;43.684;10.484;2023-04-27T12:24:15;101694.16;;;25.91;57.80
26489;BME280;14169;43.684;10.484;2023-04-27T12:26:40;101688.56;;;25.39;71.62
26489;BME280;14169;43.684;10.484;2023-04-27T12:29:06;101698.28;;;25.40;74.47
26489;BME280;14169;43.684;10.484;2023-04-27T12:31:31;101698.09;;;24.97;76.85
26489;BME280;14169;43.684;10.484;2023-04-27T12:33:57;101689.44;;;24.94;82.22
26489;BME280;14169;43.684;10.484;2023-04-27T12:36:23;101702.63;;;24.84;84.15